Latchford, Canada
Current Conditions -  °F | °C
As of 1:00 PM on Thursday 30 Oct 2014 (Local Time) from CYXR Reporting Station
Overcast Overcast  
Wind Chill: 26°   Ceiling: 2600
Heat Index: 32°   Visibility: 9mi
Dew Point: 25°   Wind: 7mph
Humidity: 75%   Direction: 290°WNW
Pressure: 30.03"   Gusts: NA
Location:  47.33°N, 79.8°W
Report Text: CYXR 301700Z AUTO 29006KT 9SM OVC026 00/M04 A3003 RMK SLP183
Loading
Personal Weather Stations






























Interactive Weather Map
Tropical Storm Tracking
New forecast layout! Learn more

10-Day Weather Forecast

Advertisements
Track Severe Weather on mobile